Portland, Oregon
Current Conditions -  °F | °C
As of 4:06 PM on Wednesday 22 Oct 2014 (Local Time) from KPDX Reporting Station
Moderate Rain Moderate Rain  
Wind Chill: 56°   Ceiling: 1300
Heat Index: 56°   Visibility: 2mi
Dew Point: 56°   Wind: 3mph
Humidity: 100%   Direction: 140°SE
Pressure: 29.72"   Gusts: NA
Location:  45.51°N, 122.67°W
Report Text: KPDX 222306Z 14003KT 2SM RA BR FEW006 BKN013 OVC017 13/13 A2972 RMK AO2 SFC VIS 2 1/2 P0005 T01330133
Loading
Personal Weather Stations






























Interactive Weather Map
Tropical Storm Tracking
New forecast layout! Learn more

10-Day Weather Forecast

Advertisements
Track Severe Weather on mobile